Time;durP1;ratioP1;P1;durP2;ratioP2;P2;SDS_P1;SDS_P2;PMS_P1;PMS_P2;Temp;Humidity;BMP_temperature;BMP_pressure;BME280_temperature;BME280_humidity;BME280_pressure;Samples;Min_cycle;Max_cycle;Signal;HPM_P1;HPM_P2
2023/11/06 00:01:09;;;;;;;5.35;2.50;;;;;;;13.01;82.70;93963.41;5094094;28;20081;-69
2023/11/06 00:03:34;;;;;;;3.88;2.10;;;;;;;12.96;83.31;93962.13;5110643;28;20116;-69
2023/11/06 00:06:00;;;;;;;3.53;2.33;;;;;;;13.17;82.78;93984.28;5093375;28;20031;-69
2023/11/06 00:08:26;;;;;;;3.78;2.00;;;;;;;12.46;85.74;93970.84;5110080;28;20039;-69
2023/11/06 00:10:52;;;;;;;4.25;2.03;;;;;;;12.74;85.04;93971.38;5112274;28;20038;-69
2023/11/06 00:13:18;;;;;;;6.20;2.70;;;;;;;12.64;84.61;93956.88;5093877;28;20497;-69
2023/11/06 00:15:44;;;;;;;4.47;2.88;;;;;;;12.56;84.81;93981.09;5093639;28;20066;-69
2023/11/06 00:18:09;;;;;;;4.60;2.80;;;;;;;12.83;84.54;93974.81;5109655;28;20119;-69
2023/11/06 00:20:35;;;;;;;4.63;2.97;;;;;;;12.72;84.35;93982.94;5093141;28;20027;-69
2023/11/06 00:23:00;;;;;;;5.38;2.95;;;;;;;12.80;84.21;93982.16;5110345;28;20027;-69
2023/11/06 00:25:26;;;;;;;6.20;3.35;;;;;;;12.70;84.46;94003.97;5110328;28;20027;-69
2023/11/06 00:27:51;;;;;;;5.00;3.10;;;;;;;12.79;83.96;94006.56;5092753;28;20031;-69
2023/11/06 00:30:16;;;;;;;6.32;3.03;;;;;;;12.70;83.98;93990.09;5110345;28;20054;-69
2023/11/06 00:32:42;;;;;;;6.97;3.20;;;;;;;12.67;83.95;94013.88;5109749;28;20085;-69
2023/11/06 00:35:09;;;;;;;5.75;3.03;;;;;;;12.90;83.68;93999.28;5110239;28;20023;-69
2023/11/06 00:37:34;;;;;;;4.35;2.75;;;;;;;13.00;82.88;94021.75;5110159;28;20122;-69
2023/11/06 00:40:00;;;;;;;5.57;2.70;;;;;;;12.83;83.66;94024.34;5092986;28;20024;-69
2023/11/06 00:42:25;;;;;;;6.03;2.88;;;;;;;12.89;83.46;94026.28;5109870;28;20042;-69
2023/11/06 00:44:51;;;;;;;7.15;3.00;;;;;;;12.94;83.21;94024.03;5076411;28;20463;-69
2023/11/06 00:47:16;;;;;;;7.05;3.40;;;;;;;12.96;82.77;94035.13;5109678;28;20043;-68
2023/11/06 00:49:42;;;;;;;6.20;3.00;;;;;;;12.59;83.92;94011.25;5109705;28;20028;-69
2023/11/06 00:52:07;;;;;;;5.68;2.67;;;;;;;12.74;83.79;94020.09;5109856;28;20035;-69
2023/11/06 00:54:33;;;;;;;6.53;2.80;;;;;;;12.79;82.57;94010.00;5110001;28;20440;-69
2023/11/06 00:57:00;;;;;;;3.20;2.53;;;;;;;12.63;83.02;94038.63;5076210;28;20039;-69
2023/11/06 00:59:25;;;;;;;5.72;2.90;;;;;;;12.68;82.33;94042.38;5109941;28;20035;-69
2023/11/06 01:01:50;;;;;;;5.63;2.67;;;;;;;12.67;82.64;94042.53;5109964;28;20039;-69
2023/11/06 01:04:16;;;;;;;3.45;2.47;;;;;;;12.90;81.82;94048.81;5092821;28;20051;-69
2023/11/06 01:06:42;;;;;;;5.53;2.60;;;;;;;12.46;82.44;94024.72;5109299;28;20039;-69
2023/11/06 01:09:07;;;;;;;5.68;2.80;;;;;;;12.43;84.32;94048.50;5109932;28;20419;-69
2023/11/06 01:11:33;;;;;;;5.15;3.30;;;;;;;12.37;84.00;94039.53;5109786;28;20441;-69
2023/11/06 01:13:58;;;;;;;4.72;2.85;;;;;;;12.46;84.24;94035.16;5109360;28;20020;-69
2023/11/06 01:16:24;;;;;;;5.95;3.05;;;;;;;12.15;84.66;94050.47;5109888;28;20032;-69
2023/11/06 01:18:49;;;;;;;5.65;3.40;;;;;;;12.41;83.79;94038.22;5109767;28;20057;-69
2023/11/06 01:21:15;;;;;;;5.13;2.72;;;;;;;12.20;83.96;94028.22;5109921;28;20019;-69
2023/11/06 01:23:40;;;;;;;8.07;2.75;;;;;;;12.19;84.40;94050.00;5109761;28;20032;-69
2023/11/06 01:26:07;;;;;;;4.78;2.92;;;;;;;12.20;82.81;94053.41;5076107;28;20032;-69
2023/11/06 01:28:33;;;;;;;4.68;2.90;;;;;;;12.10;83.79;94063.94;5110262;28;20122;-69
2023/11/06 01:30:59;;;;;;;5.97;3.17;;;;;;;12.02;83.51;94067.31;5093030;28;20035;-69
2023/11/06 01:33:24;;;;;;;5.10;2.60;;;;;;;12.00;84.00;94066.66;5109621;28;20417;-69
2023/11/06 01:35:49;;;;;;;5.35;2.58;;;;;;;11.93;83.35;94073.44;5110698;28;20024;-69
2023/11/06 01:38:15;;;;;;;4.50;2.70;;;;;;;11.69;84.35;94073.25;5109479;28;20100;-69
2023/11/06 01:40:40;;;;;;;5.88;2.92;;;;;;;11.45;85.95;94064.31;5112577;28;20055;-69
2023/11/06 01:43:06;;;;;;;5.47;3.05;;;;;;;11.50;85.71;94075.06;5095914;28;20521;-69
2023/11/06 01:45:32;;;;;;;4.30;2.70;;;;;;;11.66;86.06;94084.78;5113661;28;20102;-69
2023/11/06 01:47:58;;;;;;;4.60;2.88;;;;;;;11.55;86.20;94074.59;5095832;28;20195;-69
2023/11/06 01:50:23;;;;;;;4.75;3.20;;;;;;;11.63;86.41;94078.09;5113466;27;20071;-69
2023/11/06 01:52:49;;;;;;;5.32;2.90;;;;;;;11.70;86.27;94090.47;5113310;28;20032;-69
2023/11/06 01:55:14;;;;;;;3.75;2.63;;;;;;;11.44;85.89;94077.44;5109680;28;20024;-69
2023/11/06 01:57:40;;;;;;;5.10;2.50;;;;;;;11.36;85.96;94086.78;5092736;28;20504;-68
2023/11/06 02:00:07;;;;;;;4.55;2.20;;;;;;;11.45;84.96;94074.72;5113320;28;20035;-69
2023/11/06 02:02:33;;;;;;;3.08;1.90;;;;;;;11.53;83.23;94084.34;5112523;28;20077;-69
2023/11/06 02:04:59;;;;;;;3.03;2.22;;;;;;;11.33;83.83;94078.50;5094571;28;20032;-69
2023/11/06 02:07:24;;;;;;;4.93;1.90;;;;;;;11.48;82.37;94090.00;5078534;28;20483;-69
2023/11/06 02:09:50;;;;;;;2.50;1.52;;;;;;;11.33;82.57;94071.50;5096027;28;20036;-69
2023/11/06 02:12:15;;;;;;;2.20;1.15;;;;;;;11.16;82.46;94075.75;5095962;28;20559;-69
2023/11/06 02:14:54;;;;;;;2.42;1.27;;;;;;;10.81;83.68;94081.75;5094454;28;20035;-69
2023/11/06 02:17:20;;;;;;;4.78;2.15;;;;;;;11.19;84.01;94075.44;5112990;27;20432;-69
2023/11/06 02:19:45;;;;;;;3.78;2.08;;;;;;;10.88;85.21;94094.94;5095876;28;20028;-69
2023/11/06 02:22:11;;;;;;;3.78;1.92;;;;;;;10.93;84.91;94100.53;5092188;28;20119;-69
2023/11/06 02:24:37;;;;;;;5.75;1.83;;;;;;;11.00;84.24;94096.38;5092303;28;20028;-69
2023/11/06 02:27:03;;;;;;;2.70;1.80;;;;;;;10.89;83.78;94104.38;5092405;28;20123;-69
2023/11/06 02:29:29;;;;;;;4.53;2.00;;;;;;;10.68;84.08;94097.66;5092094;28;20028;-69
2023/11/06 02:31:54;;;;;;;4.63;1.75;;;;;;;10.70;84.38;94111.34;5097062;28;20457;-69
2023/11/06 02:34:22;;;;;;;2.83;1.52;;;;;;;10.65;84.18;94113.53;5078401;28;20024;-69
2023/11/06 02:36:48;;;;;;;2.92;1.67;;;;;;;10.80;82.87;94121.66;5095948;28;20096;-69
2023/11/06 02:39:13;;;;;;;2.60;1.58;;;;;;;10.64;82.18;94108.47;5112436;28;20537;-69
2023/11/06 02:41:39;;;;;;;5.00;1.38;;;;;;;10.42;83.45;94117.44;5111640;28;20035;-69
2023/11/06 02:44:04;;;;;;;1.90;1.13;;;;;;;10.48;83.51;94122.91;5129274;27;20043;-69
2023/11/06 02:46:30;;;;;;;4.15;1.50;;;;;;;10.44;82.39;94112.94;5095302;28;20039;-69
2023/11/06 02:48:55;;;;;;;2.67;1.67;;;;;;;10.38;84.11;94113.53;5095300;28;20036;-69
2023/11/06 02:51:21;;;;;;;2.92;1.55;;;;;;;9.91;83.70;94123.88;5094322;28;20032;-69
2023/11/06 02:53:46;;;;;;;3.90;1.60;;;;;;;10.17;83.21;94129.25;5113415;28;20319;-69
2023/11/06 02:56:12;;;;;;;2.70;1.65;;;;;;;9.98;83.78;94124.97;5078406;28;20104;-69
2023/11/06 02:58:37;;;;;;;5.85;2.65;;;;;;;9.96;86.92;94142.44;5095013;28;20501;-69
2023/11/06 03:01:03;;;;;;;3.38;1.60;;;;;;;9.95;86.81;94117.47;5111658;28;20046;-69
2023/11/06 03:03:28;;;;;;;3.95;1.60;;;;;;;10.17;86.26;94130.09;5094806;28;20039;-69
2023/11/06 03:05:54;;;;;;;3.75;1.40;;;;;;;10.67;82.50;94150.59;5113001;28;20027;-69
2023/11/06 03:08:19;;;;;;;5.03;1.40;;;;;;;10.33;82.72;94124.31;5094695;28;20068;-69
2023/11/06 03:10:45;;;;;;;7.68;2.00;;;;;;;10.65;83.35;94159.47;5111983;28;20024;-69
2023/11/06 03:13:11;;;;;;;7.18;3.55;;;;;;;10.59;83.12;94166.06;5094865;28;20044;-69
2023/11/06 03:15:37;;;;;;;4.78;2.88;;;;;;;10.51;83.66;94184.13;5111388;28;20033;-69
2023/11/06 03:18:03;;;;;;;4.03;2.92;;;;;;;10.51;82.85;94186.72;5111619;28;20020;-69
2023/11/06 03:20:28;;;;;;;5.72;2.75;;;;;;;10.20;83.64;94163.56;5112416;28;20042;-68
2023/11/06 03:22:54;;;;;;;3.53;2.30;;;;;;;10.10;84.02;94190.50;5094404;28;20028;-69
2023/11/06 03:25:20;;;;;;;3.88;2.13;;;;;;;10.14;82.98;94186.63;5111553;28;20032;-69
2023/11/06 03:27:48;;;;;;;3.60;1.98;;;;;;;9.95;83.64;94183.13;5112668;28;20028;-69
2023/11/06 03:30:13;;;;;;;4.68;2.00;;;;;;;10.15;81.59;94183.91;5094981;28;20031;-69
2023/11/06 03:32:39;;;;;;;3.13;1.40;;;;;;;10.15;81.41;94193.50;5093663;28;20126;-69
2023/11/06 03:35:06;;;;;;;3.42;1.40;;;;;;;10.12;80.18;94184.19;5111365;28;20088;-69
2023/11/06 03:37:32;;;;;;;3.35;2.08;;;;;;;10.02;80.22;94191.16;5094495;28;20027;-69
2023/11/06 03:39:57;;;;;;;2.95;1.63;;;;;;;10.03;80.08;94204.03;5111268;28;20035;-69
2023/11/06 03:42:23;;;;;;;3.60;1.75;;;;;;;9.80;80.54;94211.25;5093421;28;20043;-69
2023/11/06 03:44:49;;;;;;;4.13;1.67;;;;;;;9.63;82.46;94211.94;5094275;28;20043;-69
2023/11/06 03:47:15;;;;;;;7.13;2.20;;;;;;;9.58;82.18;94203.75;5112316;28;20042;-69
2023/11/06 03:49:40;;;;;;;5.70;3.05;;;;;;;9.45;83.52;94222.16;5111055;28;20477;-69
2023/11/06 03:52:10;;;;;;;5.28;3.08;;;;;;;9.53;84.90;94218.91;5110291;28;20511;-69
2023/11/06 03:54:37;;;;;;;4.53;2.50;;;;;;;9.59;83.58;94231.34;5110954;28;20035;-69
2023/11/06 03:57:03;;;;;;;5.57;2.63;;;;;;;9.54;81.79;94225.72;5112190;28;20028;-69
2023/11/06 03:59:28;;;;;;;6.47;2.40;;;;;;;9.53;81.97;94237.06;5090445;28;20024;-69
2023/11/06 04:01:54;;;;;;;5.70;2.45;;;;;;;9.38;83.29;94237.44;5073529;28;20456;-69
2023/11/06 04:04:19;;;;;;;5.20;2.70;;;;;;;9.39;82.69;94257.22;5075168;28;20028;-69
2023/11/06 04:06:45;;;;;;;4.38;2.40;;;;;;;9.56;81.88;94260.13;5093812;28;20425;-69
2023/11/06 04:09:10;;;;;;;4.38;2.17;;;;;;;9.29;81.53;94243.41;5110719;28;20492;-69
2023/11/06 04:11:37;;;;;;;4.70;2.10;;;;;;;9.47;81.03;94261.75;5111289;28;20045;-69
2023/11/06 04:14:03;;;;;;;4.32;1.90;;;;;;;9.22;82.16;94267.41;5110404;28;20409;-69
2023/11/06 04:16:29;;;;;;;3.20;1.70;;;;;;;9.12;83.51;94257.00;5110123;28;20027;-69
2023/11/06 04:18:54;;;;;;;5.30;1.60;;;;;;;8.90;84.83;94266.59;5093027;28;20096;-69
2023/11/06 04:21:20;;;;;;;4.68;3.22;;;;;;;8.87;84.34;94264.28;5110123;28;20023;-70
2023/11/06 04:23:46;;;;;;;4.43;1.75;;;;;;;9.10;82.90;94259.72;5127204;27;20501;-70
2023/11/06 04:26:12;;;;;;;4.72;2.40;;;;;;;8.54;83.71;94267.13;5110465;28;20035;-70
2023/11/06 04:28:37;;;;;;;7.00;2.97;;;;;;;8.76;83.85;94295.44;5093418;28;20122;-70
2023/11/06 04:31:03;;;;;;;12.43;5.70;;;;;;;8.95;83.06;94282.59;5110474;28;20481;-70
2023/11/06 04:33:28;;;;;;;8.32;4.63;;;;;;;8.86;83.27;94291.16;5093202;28;20084;-70
2023/11/06 04:35:54;;;;;;;5.30;2.80;;;;;;;8.64;83.82;94294.72;5111924;28;20440;-70
2023/11/06 04:38:19;;;;;;;2.45;1.63;;;;;;;8.72;83.82;94294.88;5110125;28;20055;-70
2023/11/06 04:40:45;;;;;;;5.88;2.20;;;;;;;8.67;83.23;94301.41;5110368;28;20030;-70
2023/11/06 04:43:10;;;;;;;3.92;2.00;;;;;;;8.58;82.89;94308.16;5109894;28;20055;-70
2023/11/06 04:45:38;;;;;;;9.05;5.50;;;;;;;8.44;82.95;94293.78;5110326;28;20399;-70
2023/11/06 04:48:04;;;;;;;9.43;6.03;;;;;;;8.59;83.82;94307.22;5109979;28;20035;-70
2023/11/06 04:50:30;;;;;;;6.85;6.07;;;;;;;8.75;84.13;94311.94;5110245;28;20024;-70
2023/11/06 04:52:55;;;;;;;4.57;2.97;;;;;;;8.73;83.97;94324.19;5105905;28;20567;-71
2023/11/06 04:55:21;;;;;;;4.90;1.65;;;;;;;8.57;84.29;94298.75;5108527;28;20448;-70
2023/11/06 04:57:46;;;;;;;4.38;1.50;;;;;;;8.54;84.69;94318.91;5087079;28;20038;-71
2023/11/06 05:00:12;;;;;;;12.18;7.68;;;;;;;8.44;84.12;94324.84;5107552;28;20485;-68
2023/11/06 05:02:38;;;;;;;10.65;4.95;;;;;;;8.37;84.55;94317.66;5088733;28;20059;-69
2023/11/06 05:05:07;;;;;;;8.00;3.38;;;;;;;8.44;84.61;94344.69;5074143;28;20497;-68
2023/11/06 05:07:32;;;;;;;7.35;3.50;;;;;;;8.41;84.77;94332.88;5103229;28;20044;-68
2023/11/06 05:09:58;;;;;;;10.05;4.57;;;;;;;8.22;88.05;94335.28;5107643;28;20035;-69
2023/11/06 05:12:23;;;;;;;5.30;3.63;;;;;;;8.20;87.92;94329.41;5088707;28;20540;-68
2023/11/06 05:14:49;;;;;;;9.93;7.50;;;;;;;8.42;87.25;94352.59;5123071;27;20028;-67
2023/11/06 05:17:14;;;;;;;5.88;4.68;;;;;;;8.32;88.19;94349.09;5074123;28;20028;-68
2023/11/06 05:19:42;;;;;;;3.65;2.38;;;;;;;8.03;86.70;94362.63;5093696;28;20113;-68
2023/11/06 05:22:08;;;;;;;5.82;2.97;;;;;;;8.32;86.89;94379.31;5110738;28;20027;-68
2023/11/06 05:24:34;;;;;;;10.93;7.00;;;;;;;8.26;87.22;94375.47;5109695;28;20063;-68
2023/11/06 05:27:00;;;;;;;8.35;5.45;;;;;;;8.16;87.58;94396.09;5074071;28;21415;-69
2023/11/06 05:29:26;;;;;;;5.25;4.35;;;;;;;8.33;86.45;94379.22;5111643;28;20032;-69
2023/11/06 05:31:52;;;;;;;6.05;3.80;;;;;;;8.20;86.68;94401.84;5106311;27;20023;-69
2023/11/06 05:34:17;;;;;;;10.95;2.67;;;;;;;8.06;88.35;94402.94;5108890;28;20296;-69
2023/11/06 05:36:42;;;;;;;7.30;2.33;;;;;;;7.80;89.22;94387.72;5107504;27;20036;-70
2023/11/06 05:39:11;;;;;;;10.98;3.47;;;;;;;7.93;88.54;94416.00;5110803;28;20040;-69
2023/11/06 05:41:36;;;;;;;7.88;6.07;;;;;;;8.12;87.89;94389.50;5091000;28;20138;-70
2023/11/06 05:44:02;;;;;;;6.65;5.07;;;;;;;8.02;88.87;94448.94;5094394;28;20469;-69
2023/11/06 05:46:27;;;;;;;7.07;4.93;;;;;;;8.31;89.11;94439.81;5110309;28;20110;-69
2023/11/06 05:48:53;;;;;;;6.53;3.00;;;;;;;8.56;87.82;94399.84;5090333;28;20034;-69
2023/11/06 05:51:18;;;;;;;5.60;3.13;;;;;;;8.79;87.58;94427.28;5078403;28;20023;-70
2023/11/06 05:53:44;;;;;;;6.15;4.15;;;;;;;8.80;87.48;94439.28;5108705;28;20176;-69
2023/11/06 05:56:09;;;;;;;11.20;4.63;;;;;;;8.85;87.15;94437.13;5109716;28;20031;-69
2023/11/06 05:58:34;;;;;;;4.90;3.00;;;;;;;9.11;87.25;94441.94;5108311;28;20581;-69
2023/11/06 06:01:01;;;;;;;9.07;5.10;;;;;;;8.90;87.32;94435.00;5109772;28;20019;-70
2023/11/06 06:03:27;;;;;;;6.43;2.20;;;;;;;9.18;88.51;94454.25;5109764;28;20089;-70
2023/11/06 06:05:52;;;;;;;5.18;2.05;;;;;;;9.31;87.62;94453.25;5109006;28;20126;-69
2023/11/06 06:08:19;;;;;;;3.55;1.70;;;;;;;9.76;87.31;94458.91;5107648;28;20509;-70
2023/11/06 06:10:45;;;;;;;4.72;1.75;;;;;;;9.84;87.07;94472.06;5109995;28;20039;-69
2023/11/06 06:13:11;;;;;;;3.45;1.58;;;;;;;10.14;85.17;94456.56;5110888;27;20027;-70
2023/11/06 06:15:36;;;;;;;3.10;1.58;;;;;;;10.25;84.65;94475.47;5092111;28;20040;-69
2023/11/06 06:18:01;;;;;;;3.88;1.40;;;;;;;10.35;84.27;94474.69;5089525;27;20039;-69
2023/11/06 06:20:27;;;;;;;2.85;1.48;;;;;;;10.51;82.89;94481.00;5111105;27;20031;-69
2023/11/06 06:22:53;;;;;;;4.65;2.38;;;;;;;10.46;82.65;94482.38;5091555;28;20521;-69
2023/11/06 06:25:18;;;;;;;4.93;2.53;;;;;;;10.53;83.10;94478.28;5075320;28;20024;-69
2023/11/06 06:27:43;;;;;;;15.43;7.20;;;;;;;10.45;83.49;94471.16;5089760;28;20039;-69
2023/11/06 06:30:15;;;;;;;13.32;5.65;;;;;;;10.41;82.31;94471.56;5092506;28;21536;-70
2023/11/06 06:32:41;;;;;;;5.72;3.20;;;;;;;10.65;81.61;94502.34;5077525;28;20027;-70
2023/11/06 06:35:07;;;;;;;6.25;3.10;;;;;;;10.50;83.29;94494.13;5109800;28;20505;-70
2023/11/06 06:37:33;;;;;;;12.80;6.63;;;;;;;10.50;82.74;94478.53;5089803;28;20034;-69
2023/11/06 06:39:58;;;;;;;18.05;10.65;;;;;;;10.63;82.47;94505.06;5108088;28;20159;-69
2023/11/06 06:42:28;;;;;;;13.75;7.63;;;;;;;10.55;82.37;94504.94;5109299;28;20092;-69
2023/11/06 06:44:53;;;;;;;3.75;2.13;;;;;;;10.54;82.86;94511.09;5107877;28;20062;-68
2023/11/06 06:47:20;;;;;;;3.28;1.50;;;;;;;10.61;81.74;94514.78;5088634;27;20238;-68
2023/11/06 06:49:45;;;;;;;4.00;1.95;;;;;;;10.73;81.25;94516.31;5108954;27;20058;-68
2023/11/06 06:52:11;;;;;;;5.13;2.15;;;;;;;10.87;81.70;94516.88;5107974;27;20063;-68
2023/11/06 06:54:36;;;;;;;5.90;4.18;;;;;;;10.94;78.82;94515.34;5106376;27;20481;-68
2023/11/06 06:57:03;;;;;;;4.47;2.20;;;;;;;11.06;77.00;94527.28;5108940;27;20470;-68
2023/11/06 06:59:28;;;;;;;4.15;1.90;;;;;;;11.29;78.53;94522.59;5108769;28;20062;-68
2023/11/06 07:01:54;;;;;;;6.47;1.20;;;;;;;11.31;79.20;94525.06;5110972;27;20477;-68
2023/11/06 07:04:19;;;;;;;3.88;1.52;;;;;;;11.29;79.02;94522.59;5090848;28;20031;-68
2023/11/06 07:06:45;;;;;;;3.30;1.27;;;;;;;11.29;76.96;94527.00;5089538;28;20444;-68
2023/11/06 07:09:10;;;;;;;2.75;1.23;;;;;;;11.51;77.16;94538.88;5107902;28;20024;-68
2023/11/06 07:11:36;;;;;;;6.13;1.40;;;;;;;11.62;74.88;94534.34;5111303;28;20028;-68
2023/11/06 07:14:01;;;;;;;5.55;1.52;;;;;;;11.57;78.88;94533.94;5102211;28;20032;-68
2023/11/06 07:16:26;;;;;;;4.55;1.60;;;;;;;12.46;74.14;94537.91;5089685;28;20282;-68
2023/11/06 07:18:52;;;;;;;4.40;1.92;;;;;;;13.76;68.88;94527.88;5111094;28;20027;-68
2023/11/06 07:21:17;;;;;;;3.28;1.50;;;;;;;14.11;68.41;94536.56;5094588;28;20036;-68
2023/11/06 07:23:44;;;;;;;2.65;1.27;;;;;;;14.39;68.42;94538.97;5077500;28;20036;-69
2023/11/06 07:26:09;;;;;;;3.72;1.50;;;;;;;15.13;65.56;94530.41;5111541;28;20421;-68
2023/11/06 07:28:35;;;;;;;5.60;1.52;;;;;;;16.36;58.67;94558.31;5111902;28;20059;-69
2023/11/06 07:31:00;;;;;;;2.58;1.52;;;;;;;17.53;54.16;94553.97;5109601;28;20028;-69
2023/11/06 07:33:26;;;;;;;6.10;1.70;;;;;;;18.17;51.72;94541.28;5109491;28;20412;-69
2023/11/06 07:35:52;;;;;;;4.13;1.52;;;;;;;18.59;51.83;94542.44;5091963;28;20296;-69
2023/11/06 07:38:17;;;;;;;9.27;2.13;;;;;;;19.20;47.00;94548.25;5108809;28;20038;-69
2023/11/06 07:40:43;;;;;;;3.35;1.10;;;;;;;19.57;47.47;94542.94;5109222;28;20039;-69
2023/11/06 07:43:08;;;;;;;3.10;1.15;;;;;;;18.27;49.76;94551.50;5109010;28;20055;-69
2023/11/06 07:45:34;;;;;;;4.63;1.63;;;;;;;17.94;51.33;94545.75;5111004;28;20100;-68
2023/11/06 07:48:02;;;;;;;2.85;0.90;;;;;;;17.04;51.90;94556.91;5077129;28;20031;-69
2023/11/06 07:50:34;;;;;;;4.70;1.10;;;;;;;16.96;50.82;94566.44;5112228;28;20062;-69
2023/11/06 07:53:01;;;;;;;4.18;1.10;;;;;;;16.75;52.30;94564.41;5095094;28;20048;-69
2023/11/06 07:55:26;;;;;;;2.88;1.00;;;;;;;16.66;52.38;94575.06;5110973;28;20024;-68
2023/11/06 07:57:52;;;;;;;3.17;1.17;;;;;;;16.70;54.47;94564.09;5111084;28;20480;-69
2023/11/06 08:00:17;;;;;;;3.60;1.13;;;;;;;15.92;54.15;94569.22;5110909;28;20485;-69
2023/11/06 08:02:43;;;;;;;3.95;1.50;;;;;;;16.08;53.74;94562.16;5110983;28;20463;-69
2023/11/06 08:05:11;;;;;;;2.28;1.13;;;;;;;15.70;53.30;94547.13;5110878;28;20031;-68
2023/11/06 08:07:40;;;;;;;3.78;1.40;;;;;;;16.06;55.14;94571.97;5110833;28;20102;-68
2023/11/06 08:10:09;;;;;;;6.25;1.30;;;;;;;15.98;54.30;94564.13;5110755;28;20441;-69
2023/11/06 08:12:34;;;;;;;4.63;1.08;;;;;;;16.05;54.82;94556.44;5110676;28;20089;-68
2023/11/06 08:15:00;;;;;;;6.30;1.10;;;;;;;16.19;54.13;94578.50;5093765;28;20032;-69
2023/11/06 08:17:25;;;;;;;3.53;0.82;;;;;;;15.81;53.22;94573.78;5110495;28;20031;-68
2023/11/06 08:19:52;;;;;;;4.38;0.93;;;;;;;15.88;54.37;94573.97;5110603;28;20459;-69
2023/11/06 08:22:20;;;;;;;3.58;0.80;;;;;;;16.01;54.42;94579.50;5110373;28;20035;-68
2023/11/06 08:24:45;;;;;;;5.40;1.10;;;;;;;16.19;54.72;94583.75;5110278;28;20054;-69
2023/11/06 08:27:11;;;;;;;4.25;0.90;;;;;;;16.08;53.45;94580.50;5093582;28;20055;-69
2023/11/06 08:29:41;;;;;;;5.70;0.98;;;;;;;16.02;52.54;94581.16;5110313;28;20034;-69
2023/11/06 08:32:06;;;;;;;3.13;1.00;;;;;;;15.94;53.43;94562.81;5110550;28;20084;-69
2023/11/06 08:34:32;;;;;;;5.20;0.90;;;;;;;16.07;52.45;94585.88;5076377;28;20036;-68
2023/11/06 08:36:58;;;;;;;3.92;1.63;;;;;;;16.25;52.04;94588.31;5111728;28;20034;-69
2023/11/06 08:39:23;;;;;;;3.35;1.02;;;;;;;16.24;52.89;94587.50;5093151;28;20019;-69
2023/11/06 08:41:49;;;;;;;3.65;1.20;;;;;;;16.36;51.66;94582.72;5093187;28;20088;-69
2023/11/06 08:44:14;;;;;;;3.58;1.45;;;;;;;16.32;50.74;94578.78;5093288;28;20059;-69
2023/11/06 08:46:41;;;;;;;3.78;0.93;;;;;;;16.12;49.59;94583.59;5110043;28;20490;-68
2023/11/06 08:49:06;;;;;;;3.05;0.90;;;;;;;16.29;51.09;94579.13;5092773;28;20473;-68
2023/11/06 08:51:32;;;;;;;5.22;1.30;;;;;;;16.40;50.05;94594.50;5110330;28;20092;-69
2023/11/06 08:53:58;;;;;;;3.83;1.20;;;;;;;16.39;51.13;94585.00;5109899;28;20421;-69
2023/11/06 08:56:23;;;;;;;3.67;0.90;;;;;;;16.42;49.47;94592.53;5110010;28;20023;-69
2023/11/06 08:58:50;;;;;;;3.63;1.30;;;;;;;16.44;50.20;94593.19;5109973;28;20036;-69
2023/11/06 09:01:15;;;;;;;3.25;1.10;;;;;;;16.62;48.91;94602.63;5111287;28;20569;-69
2023/11/06 09:03:41;;;;;;;2.75;1.00;;;;;;;16.79;48.70;94598.19;5092969;28;20028;-69
2023/11/06 09:06:06;;;;;;;2.90;0.80;;;;;;;16.69;49.77;94598.38;5092987;28;20030;-69
2023/11/06 09:08:32;;;;;;;6.97;1.35;;;;;;;16.72;49.17;94587.53;5111052;28;20027;-69
2023/11/06 09:10:57;;;;;;;3.03;0.80;;;;;;;16.61;48.35;94604.44;5109734;28;20051;-69
2023/11/06 09:13:23;;;;;;;3.05;0.82;;;;;;;16.61;48.93;94606.25;5111164;28;20036;-69
2023/11/06 09:15:49;;;;;;;3.67;0.80;;;;;;;16.64;48.40;94604.09;5109801;28;20032;-69
2023/11/06 09:18:19;;;;;;;5.15;1.02;;;;;;;16.77;48.15;94606.22;5111445;28;20031;-68
2023/11/06 09:20:47;;;;;;;4.80;0.88;;;;;;;16.71;47.55;94607.66;5109999;28;20562;-69
2023/11/06 09:23:12;;;;;;;3.58;0.77;;;;;;;16.78;47.08;94605.22;5111371;28;20545;-69
2023/11/06 09:25:38;;;;;;;3.08;0.80;;;;;;;16.80;48.81;94599.81;5109669;28;20030;-69
2023/11/06 09:28:04;;;;;;;2.45;0.82;;;;;;;17.04;47.79;94609.38;5092659;28;20032;-69
2023/11/06 09:30:29;;;;;;;3.53;1.00;;;;;;;16.98;47.96;94603.81;5093150;28;20101;-70
2023/11/06 09:32:55;;;;;;;2.17;0.93;;;;;;;17.33;47.50;94611.38;5092867;28;20485;-69
2023/11/06 09:35:22;;;;;;;3.00;0.80;;;;;;;17.28;46.55;94604.00;5110881;28;20032;-69
2023/11/06 09:37:48;;;;;;;6.70;1.00;;;;;;;17.32;46.54;94600.03;5111203;28;20378;-69
2023/11/06 09:40:19;;;;;;;2.67;0.88;;;;;;;17.31;45.01;94603.66;5110851;28;20032;-68
2023/11/06 09:42:45;;;;;;;2.85;1.00;;;;;;;17.36;46.09;94596.09;5092708;28;20035;-69
2023/11/06 09:45:10;;;;;;;4.30;0.82;;;;;;;17.36;45.16;94601.34;5075701;28;20081;-69
2023/11/06 09:47:36;;;;;;;4.90;1.20;;;;;;;17.36;45.34;94595.28;5092733;28;20108;-69
2023/11/06 09:50:02;;;;;;;3.78;0.93;;;;;;;17.45;46.68;94598.66;5092781;28;20032;-70
2023/11/06 09:52:28;;;;;;;3.40;0.80;;;;;;;17.58;45.90;94593.66;5075744;28;20485;-68
2023/11/06 09:54:54;;;;;;;4.32;1.10;;;;;;;17.63;44.70;94586.88;5109556;28;20031;-68
2023/11/06 09:57:19;;;;;;;3.78;0.85;;;;;;;17.73;44.26;94576.13;5109604;28;20035;-68
2023/11/06 09:59:45;;;;;;;2.92;1.23;;;;;;;17.81;45.92;94580.53;5092572;28;20023;-69
2023/11/06 10:02:10;;;;;;;4.43;0.90;;;;;;;17.80;43.57;94573.63;5095913;28;20028;-69
2023/11/06 10:04:36;;;;;;;3.63;1.00;;;;;;;17.92;44.26;94574.84;5113120;28;20051;-69
2023/11/06 10:07:02;;;;;;;3.47;0.95;;;;;;;17.92;43.54;94577.47;5079236;28;20091;-68
2023/11/06 10:09:27;;;;;;;3.22;1.05;;;;;;;17.91;43.57;94569.75;5112146;28;20023;-69
2023/11/06 10:11:57;;;;;;;4.72;1.10;;;;;;;17.79;43.65;94583.31;5111507;28;20043;-69
2023/11/06 10:14:38;;;;;;;4.82;1.23;;;;;;;17.77;43.43;94577.38;5112969;28;20019;-69
2023/11/06 10:17:04;;;;;;;3.95;1.05;;;;;;;18.06;42.88;94578.50;5113052;28;20039;-68
2023/11/06 10:19:29;;;;;;;3.58;1.08;;;;;;;17.90;43.58;94566.31;5114013;28;20062;-69
2023/11/06 10:21:55;;;;;;;3.67;1.13;;;;;;;17.99;43.57;94575.75;5112856;28;20035;-69
2023/11/06 10:24:20;;;;;;;4.75;1.00;;;;;;;18.03;42.76;94568.34;5095786;28;20016;-69
2023/11/06 10:26:46;;;;;;;5.35;1.00;;;;;;;17.99;42.30;94564.44;5095827;28;20035;-69
2023/11/06 10:29:12;;;;;;;4.35;1.10;;;;;;;18.31;42.92;94572.00;5113894;28;20019;-69
2023/11/06 10:31:39;;;;;;;2.95;0.90;;;;;;;18.29;42.37;94558.22;5112625;28;20032;-68
2023/11/06 10:34:27;;;;;;;3.55;1.20;;;;;;;18.22;42.43;94562.56;5112557;28;20038;-69
2023/11/06 10:37:07;;;;;;;4.15;1.27;;;;;;;18.07;42.23;94565.16;5081256;28;20066;-69
2023/11/06 10:39:33;;;;;;;3.55;0.93;;;;;;;18.14;39.46;94546.06;5112530;28;20026;-69
2023/11/06 10:42:03;;;;;;;4.43;1.30;;;;;;;18.31;38.46;94556.22;5078475;28;20031;-69
2023/11/06 10:44:34;;;;;;;2.77;0.90;;;;;;;18.47;41.24;94554.41;5112223;28;20101;-69
2023/11/06 10:47:05;;;;;;;;;;;;;;;18.49;42.97;94555.03;5079627;28;20071;-68
2023/11/06 10:49:34;;;;;;;4.03;1.00;;;;;;;18.34;40.17;94547.16;5112353;28;19919;-69
2023/11/06 10:52:02;;;;;;;3.53;1.10;;;;;;;18.59;45.68;94550.34;5112378;28;20036;-69
2023/11/06 10:54:29;;;;;;;3.30;0.98;;;;;;;18.56;43.08;94545.44;5112182;28;20023;-69
2023/11/06 10:56:57;;;;;;;4.40;0.95;;;;;;;18.76;46.04;94545.72;5095394;28;20115;-69
2023/11/06 10:59:23;;;;;;;3.85;1.13;;;;;;;18.57;44.31;94539.19;5095484;28;20023;-69
2023/11/06 11:01:49;;;;;;;2.30;1.00;;;;;;;18.60;45.59;94546.69;5112103;28;20115;-69
2023/11/06 11:04:14;;;;;;;2.67;0.85;;;;;;;18.60;47.09;94546.69;5095062;28;20489;-69
2023/11/06 11:06:43;;;;;;;3.00;0.88;;;;;;;18.39;44.54;94560.59;5111946;28;20085;-69
2023/11/06 11:09:11;;;;;;;2.72;0.93;;;;;;;18.17;44.88;94557.03;5111927;28;20024;-69
2023/11/06 11:11:38;;;;;;;2.28;0.90;;;;;;;18.02;44.98;94556.19;5095191;28;20183;-69
2023/11/06 11:14:06;;;;;;;3.67;0.70;;;;;;;17.97;45.12;94555.91;5111446;28;20031;-69
2023/11/06 11:16:38;;;;;;;6.60;0.98;;;;;;;17.84;45.00;94546.84;5095162;28;20442;-69
2023/11/06 11:19:23;;;;;;;4.53;1.23;;;;;;;17.98;49.12;94553.09;5095164;28;20038;-69
2023/11/06 11:22:08;;;;;;;3.53;0.90;;;;;;;17.92;42.53;94553.03;5111688;28;20028;-69
2023/11/06 11:24:44;;;;;;;3.78;1.10;;;;;;;18.01;44.35;94567.72;5111612;28;20058;-69
2023/11/06 11:27:10;;;;;;;5.55;1.08;;;;;;;18.16;48.24;94552.75;5112662;28;20087;-69
2023/11/06 11:29:54;;;;;;;3.80;0.93;;;;;;;18.33;45.95;94556.06;5112710;28;20123;-69